createdAt,value
2018-01-26T00:00:08.491Z,101378.73
2018-01-26T00:02:36.862Z,101374.56
2018-01-26T00:05:05.211Z,101366.75
2018-01-26T00:07:33.562Z,101373.58
2018-01-26T00:10:01.907Z,101384.56
2018-01-26T00:12:30.293Z,101386.39
2018-01-26T00:14:59.291Z,101380.20
2018-01-26T00:17:27.980Z,101382.12
2018-01-26T00:19:56.363Z,101377.88
2018-01-26T00:22:24.699Z,101380.22
2018-01-26T00:24:53.950Z,101385.03
2018-01-26T00:27:22.243Z,101386.29
2018-01-26T00:29:50.557Z,101384.47
2018-01-26T00:32:18.893Z,101384.42
2018-01-26T00:34:47.685Z,101383.11
2018-01-26T00:37:15.975Z,101390.41
2018-01-26T00:39:44.355Z,101394.98
2018-01-26T00:42:12.732Z,101389.01
2018-01-26T00:44:41.027Z,101396.58
2018-01-26T00:47:09.330Z,101399.48
2018-01-26T00:49:37.648Z,101399.66
2018-01-26T00:52:06.726Z,101399.33
2018-01-26T00:54:35.060Z,101400.94
2018-01-26T00:57:03.442Z,101402.86
2018-01-26T00:59:31.821Z,101404.44
2018-01-26T01:02:00.112Z,101404.97
2018-01-26T01:04:28.414Z,101399.83
2018-01-26T01:06:56.876Z,101399.58
2018-01-26T01:09:25.427Z,101398.83
2018-01-26T01:11:54.505Z,101399.58
2018-01-26T01:14:22.817Z,101398.62
2018-01-26T01:16:51.867Z,101398.53
2018-01-26T01:19:20.165Z,101387.90
2018-01-26T01:21:48.444Z,101387.66
2018-01-26T01:24:16.745Z,101391.47
2018-01-26T01:26:45.911Z,101387.23
2018-01-26T01:29:14.215Z,101394.05
2018-01-26T01:31:42.512Z,101406.27
2018-01-26T01:34:10.799Z,101402.47
2018-01-26T01:36:39.891Z,101408.78
2018-01-26T01:39:08.204Z,101415.67
2018-01-26T01:41:36.526Z,101418.83
2018-01-26T01:44:04.846Z,101426.89
2018-01-26T01:46:33.936Z,101419.83
2018-01-26T01:49:16.860Z,101422.98
2018-01-26T01:51:45.943Z,101422.81
2018-01-26T01:54:14.238Z,101428.95
2018-01-26T01:56:43.359Z,101436.34
2018-01-26T01:59:11.659Z,101433.27
2018-01-26T02:01:40.028Z,101427.13
2018-01-26T02:04:08.410Z,101423.97
2018-01-26T02:06:36.705Z,101425.88
2018-01-26T02:09:05.039Z,101421.15
2018-01-26T02:11:33.459Z,101424.97
2018-01-26T02:14:01.762Z,101420.31
2018-01-26T02:16:30.843Z,101423.72
2018-01-26T02:18:59.918Z,101420.23
2018-01-26T02:21:28.971Z,101415.33
2018-01-26T02:23:57.321Z,101418.67
2018-01-26T02:26:25.605Z,101414.86
2018-01-26T02:28:53.917Z,101418.09
2018-01-26T02:31:22.268Z,101422.08
2018-01-26T02:33:50.646Z,101409.38
2018-01-26T02:36:19.756Z,101408.80
2018-01-26T02:38:48.049Z,101399.99
2018-01-26T02:41:16.357Z,101408.88
2018-01-26T02:43:44.797Z,101407.45
2018-01-26T02:46:13.115Z,101403.97
2018-01-26T02:48:41.446Z,101403.64
2018-01-26T02:51:09.764Z,101417.34
2018-01-26T02:53:38.123Z,101413.02
2018-01-26T02:56:06.416Z,101407.03
2018-01-26T02:58:34.788Z,101407.38
2018-01-26T03:01:03.094Z,101412.27
2018-01-26T03:03:32.134Z,101416.26
2018-01-26T03:06:00.442Z,101408.88
2018-01-26T03:08:28.934Z,101412.45
2018-01-26T03:10:57.499Z,101410.87
2018-01-26T03:13:26.723Z,101426.23
2018-01-26T03:15:55.317Z,101426.56
2018-01-26T03:18:24.800Z,101420.17
2018-01-26T03:20:53.921Z,101423.98
2018-01-26T03:23:22.229Z,101427.14
2018-01-26T03:25:50.528Z,101428.38
2018-01-26T03:28:18.971Z,101420.00
2018-01-26T03:30:47.349Z,101425.06
2018-01-26T03:33:15.741Z,101418.92
2018-01-26T03:35:44.217Z,101421.58
2018-01-26T03:38:12.585Z,101431.87
2018-01-26T03:40:41.646Z,101435.59
2018-01-26T03:43:09.985Z,101438.42
2018-01-26T03:45:38.310Z,101444.42
2018-01-26T03:48:06.650Z,101448.41
2018-01-26T03:50:35.774Z,101454.04
2018-01-26T03:53:04.333Z,101453.63
2018-01-26T03:55:32.645Z,101457.19
2018-01-26T03:58:00.915Z,101467.14
2018-01-26T04:00:29.364Z,101459.19
2018-01-26T04:02:57.698Z,101460.59
2018-01-26T04:05:26.016Z,101463.25
2018-01-26T04:07:55.090Z,101456.52
2018-01-26T04:10:23.417Z,101464.41
2018-01-26T04:12:52.613Z,101474.45
2018-01-26T04:15:20.894Z,101471.54
2018-01-26T04:17:49.968Z,101480.99
2018-01-26T04:20:18.390Z,101477.51
2018-01-26T04:22:46.754Z,101487.22
2018-01-26T04:25:15.805Z,101483.81
2018-01-26T04:27:44.278Z,101491.95
2018-01-26T04:30:12.926Z,101501.98
2018-01-26T04:32:42.047Z,101499.41
2018-01-26T04:35:10.434Z,101500.06
2018-01-26T04:37:38.750Z,101504.05
2018-01-26T04:40:07.083Z,101507.69
2018-01-26T04:42:35.382Z,101508.88
2018-01-26T04:45:03.672Z,101519.23
2018-01-26T04:47:31.965Z,101517.99
2018-01-26T04:50:00.393Z,101509.69
2018-01-26T04:52:29.491Z,101516.33
2018-01-26T04:54:57.828Z,101521.55
2018-01-26T04:57:26.130Z,101517.50
2018-01-26T04:59:54.426Z,101524.05
2018-01-26T05:02:22.773Z,101520.48
2018-01-26T05:04:51.053Z,101522.65
2018-01-26T05:07:19.332Z,101529.13
2018-01-26T05:09:48.342Z,101529.70
2018-01-26T05:12:16.793Z,101521.73
2018-01-26T05:14:45.089Z,101527.88
2018-01-26T05:17:13.381Z,101536.33
2018-01-26T05:19:41.682Z,101539.00
2018-01-26T05:22:10.145Z,101534.86
2018-01-26T05:24:38.514Z,101538.94
2018-01-26T05:27:06.802Z,101537.45
2018-01-26T05:29:35.091Z,101544.58
2018-01-26T05:32:03.407Z,101550.30
2018-01-26T05:34:31.694Z,101546.40
2018-01-26T05:36:59.998Z,101544.31
2018-01-26T05:39:28.397Z,101552.48
2018-01-26T05:41:56.777Z,101555.94
2018-01-26T05:44:25.064Z,101548.55
2018-01-26T05:46:53.418Z,101556.34
2018-01-26T05:49:22.502Z,101561.73
2018-01-26T05:51:50.804Z,101566.13
2018-01-26T05:54:19.880Z,101568.61
2018-01-26T05:56:48.200Z,101567.94
2018-01-26T05:59:16.494Z,101571.27
2018-01-26T06:01:44.787Z,101575.66
2018-01-26T06:04:13.204Z,101576.42
2018-01-26T06:06:41.553Z,101572.13
2018-01-26T06:09:09.884Z,101576.53
2018-01-26T06:11:39.013Z,101582.34
2018-01-26T06:14:07.308Z,101595.35
2018-01-26T06:16:35.614Z,101592.77
2018-01-26T06:19:03.954Z,101592.97
2018-01-26T06:21:32.324Z,101592.29
2018-01-26T06:24:01.375Z,101591.86
2018-01-26T06:26:29.722Z,101601.52
2018-01-26T06:28:58.006Z,101601.94
2018-01-26T06:31:26.446Z,101610.81
2018-01-26T06:33:54.751Z,101616.77
2018-01-26T06:36:23.824Z,101624.14
2018-01-26T06:38:52.128Z,101621.02
2018-01-26T06:41:21.248Z,101626.35
2018-01-26T06:43:49.553Z,101631.27
2018-01-26T06:46:17.882Z,101638.07
2018-01-26T06:48:46.958Z,101631.43
2018-01-26T06:51:15.294Z,101639.55
2018-01-26T06:53:43.608Z,101640.57
2018-01-26T06:56:11.909Z,101648.12
2018-01-26T06:58:40.904Z,101654.42
2018-01-26T07:01:09.216Z,101645.54
2018-01-26T07:03:38.272Z,101660.87
2018-01-26T07:06:06.585Z,101662.38
2018-01-26T07:08:35.660Z,101669.78
2018-01-26T07:11:04.024Z,101670.73
2018-01-26T07:13:33.116Z,101678.78
2018-01-26T07:16:01.514Z,101675.55
2018-01-26T07:18:29.831Z,101677.80
2018-01-26T07:20:58.904Z,101682.77
2018-01-26T07:23:27.190Z,101680.60
2018-01-26T07:25:55.897Z,101685.49
2018-01-26T07:28:24.188Z,101691.41
2018-01-26T07:30:53.280Z,101688.75
2018-01-26T07:33:21.583Z,101700.73
2018-01-26T07:35:49.880Z,101698.59
2018-01-26T07:38:18.208Z,101694.38
2018-01-26T07:40:47.065Z,101700.78
2018-01-26T07:43:15.364Z,101699.53
2018-01-26T07:45:43.682Z,101709.43
2018-01-26T07:48:12.759Z,101711.05
2018-01-26T07:50:41.052Z,101718.10
2018-01-26T07:53:09.348Z,101731.38
2018-01-26T07:55:38.439Z,101725.08
2018-01-26T07:58:06.753Z,101727.66
2018-01-26T08:00:35.115Z,101732.48
2018-01-26T08:03:04.197Z,101743.02
2018-01-26T08:05:32.508Z,101743.62
2018-01-26T08:08:00.846Z,101740.47
2018-01-26T08:10:29.168Z,101738.34
2018-01-26T08:12:58.238Z,101732.13
2018-01-26T08:15:26.564Z,101727.75
2018-01-26T08:17:55.153Z,101734.69
2018-01-26T08:20:23.468Z,101749.14
2018-01-26T08:22:51.774Z,101750.62
2018-01-26T08:25:20.086Z,101760.03
2018-01-26T08:27:48.403Z,101770.77
2018-01-26T08:30:16.712Z,101771.94
2018-01-26T08:32:44.994Z,101774.02
2018-01-26T08:35:13.317Z,101783.17
2018-01-26T08:37:41.912Z,101788.41
2018-01-26T08:40:10.225Z,101787.58
2018-01-26T08:42:38.534Z,101789.14
2018-01-26T08:45:06.851Z,101785.15
2018-01-26T08:47:35.158Z,101786.97
2018-01-26T08:50:03.676Z,101789.34
2018-01-26T08:52:31.964Z,101793.75
2018-01-26T08:55:00.286Z,101799.97
2018-01-26T08:57:28.585Z,101807.79
2018-01-26T08:59:56.888Z,101817.77
2018-01-26T09:02:25.202Z,101817.53
2018-01-26T09:04:54.282Z,101824.02
2018-01-26T09:07:22.637Z,101828.34
2018-01-26T09:09:50.932Z,101827.93
2018-01-26T09:12:19.277Z,101830.95
2018-01-26T09:14:48.548Z,101825.99
2018-01-26T09:17:18.290Z,101836.71
2018-01-26T09:19:46.605Z,101841.25
2018-01-26T09:22:14.910Z,101844.91
2018-01-26T09:24:43.236Z,101842.48
2018-01-26T09:27:11.546Z,101850.53
2018-01-26T09:29:39.988Z,101859.01
2018-01-26T09:32:08.293Z,101873.84
2018-01-26T09:34:36.645Z,101873.69
2018-01-26T09:37:05.721Z,101870.80
2018-01-26T09:39:34.131Z,101880.09
2018-01-26T09:42:02.425Z,101881.05
2018-01-26T09:44:30.711Z,101875.80
2018-01-26T09:46:59.025Z,101880.73
2018-01-26T09:49:28.109Z,101884.33
2018-01-26T09:51:56.461Z,101885.41
2018-01-26T09:54:24.780Z,101892.19
2018-01-26T09:56:53.076Z,101898.59
2018-01-26T09:59:21.377Z,101906.62
2018-01-26T10:01:49.723Z,101913.56
2018-01-26T10:04:18.035Z,101915.73
2018-01-26T10:06:46.353Z,101912.87
2018-01-26T10:09:14.718Z,101914.37
2018-01-26T10:11:43.020Z,101915.30
2018-01-26T10:14:11.311Z,101922.88
2018-01-26T10:16:39.641Z,101922.25
2018-01-26T10:19:09.407Z,101924.27
2018-01-26T10:21:37.738Z,101921.95
2018-01-26T10:24:06.050Z,101922.95
2018-01-26T10:26:35.125Z,101930.10
2018-01-26T10:29:03.448Z,101929.06
2018-01-26T10:31:31.914Z,101934.29
2018-01-26T10:34:01.001Z,101930.56
2018-01-26T10:36:29.301Z,101927.30
2018-01-26T10:38:58.389Z,101928.91
2018-01-26T10:41:27.435Z,101924.65
2018-01-26T10:43:55.756Z,101930.40
2018-01-26T10:46:24.055Z,101926.49
2018-01-26T10:48:53.135Z,101929.30
2018-01-26T10:51:21.479Z,101929.88
2018-01-26T10:53:49.784Z,101928.47
2018-01-26T10:56:18.121Z,101932.20
2018-01-26T10:58:46.576Z,101937.08
2018-01-26T11:01:15.713Z,101943.58
2018-01-26T11:03:44.005Z,101947.39
2018-01-26T11:06:12.313Z,101943.88
2018-01-26T11:08:40.623Z,101945.70
2018-01-26T11:11:09.689Z,101937.67
2018-01-26T11:13:38.063Z,101943.67
2018-01-26T11:16:06.369Z,101947.14
2018-01-26T11:18:34.675Z,101953.73
2018-01-26T11:21:03.784Z,101959.48
2018-01-26T11:23:32.121Z,101968.23
2018-01-26T11:26:00.425Z,101971.38
2018-01-26T11:28:28.757Z,101971.53
2018-01-26T11:30:57.061Z,101971.75
2018-01-26T11:33:25.357Z,101970.28
2018-01-26T11:35:54.255Z,101967.31
2018-01-26T11:38:22.662Z,101971.49
2018-01-26T11:40:51.742Z,101972.17
2018-01-26T11:43:20.050Z,101981.17
2018-01-26T11:45:48.429Z,101988.76
2018-01-26T11:48:16.737Z,101989.84
2018-01-26T11:50:45.067Z,101996.02
2018-01-26T11:53:13.393Z,102000.65
2018-01-26T11:55:41.709Z,102003.23
2018-01-26T11:58:10.021Z,102000.64
2018-01-26T12:00:38.345Z,101998.94
2018-01-26T12:03:06.689Z,102006.15
2018-01-26T12:05:35.785Z,102003.98
2018-01-26T12:08:04.093Z,102003.56
2018-01-26T12:10:32.601Z,102008.91
2018-01-26T12:13:00.910Z,102008.69
2018-01-26T12:15:29.238Z,102016.54
2018-01-26T12:17:57.569Z,102023.63
2018-01-26T12:20:25.907Z,102031.34
2018-01-26T12:22:54.261Z,102029.94
2018-01-26T12:25:22.568Z,102030.77
2018-01-26T12:27:50.899Z,102030.52
2018-01-26T12:30:19.222Z,102022.75
2018-01-26T12:32:47.539Z,102023.25
2018-01-26T12:35:15.877Z,102021.05
2018-01-26T12:37:45.589Z,102022.54
2018-01-26T12:40:14.740Z,102026.63
2018-01-26T12:42:43.047Z,102031.22
2018-01-26T12:45:11.373Z,102020.70
2018-01-26T12:47:39.680Z,102023.16
2018-01-26T12:50:08.236Z,102023.23
2018-01-26T12:52:37.331Z,102020.06
2018-01-26T12:55:06.457Z,102022.56
2018-01-26T12:57:34.793Z,102019.94
2018-01-26T13:00:03.423Z,102029.19
2018-01-26T13:02:31.727Z,102030.85
2018-01-26T13:05:00.263Z,102029.17
2018-01-26T13:07:29.441Z,102027.97
2018-01-26T13:09:57.751Z,102030.21
2018-01-26T13:12:26.848Z,102036.65
2018-01-26T13:14:55.917Z,102035.86
2018-01-26T13:17:24.381Z,102046.72
2018-01-26T13:19:52.677Z,102043.28
2018-01-26T13:22:20.992Z,102044.41
2018-01-26T13:24:50.366Z,102044.89
2018-01-26T13:27:18.679Z,102043.60
2018-01-26T13:29:47.745Z,102042.12
2018-01-26T13:32:16.069Z,102044.30
2018-01-26T13:34:45.137Z,102060.75
2018-01-26T13:37:13.455Z,102057.75
2018-01-26T13:39:42.558Z,102060.58
2018-01-26T13:42:11.650Z,102072.61
2018-01-26T13:44:39.991Z,102063.92
2018-01-26T13:47:08.328Z,102067.74
2018-01-26T13:49:36.639Z,102064.36
2018-01-26T13:52:04.968Z,102070.20
2018-01-26T13:54:34.055Z,102065.16
2018-01-26T13:57:02.380Z,102072.12
2018-01-26T13:59:30.688Z,102071.94
2018-01-26T14:01:59.025Z,102080.38
2018-01-26T14:04:28.101Z,102081.98
2018-01-26T14:06:56.428Z,102082.22
2018-01-26T14:09:25.308Z,102085.55
2018-01-26T14:11:53.608Z,102090.91
2018-01-26T14:14:21.919Z,102086.31
2018-01-26T14:16:50.255Z,102097.45
2018-01-26T14:19:18.559Z,102097.01
2018-01-26T14:21:46.862Z,102099.09
2018-01-26T14:24:15.177Z,102102.69
2018-01-26T14:26:44.352Z,102100.70
2018-01-26T14:29:12.668Z,102108.10
2018-01-26T14:31:41.734Z,102110.21
2018-01-26T14:34:10.047Z,102115.89
2018-01-26T14:36:38.371Z,102113.03
2018-01-26T14:39:06.673Z,102120.38
2018-01-26T14:41:35.045Z,102114.74
2018-01-26T14:44:03.344Z,102115.91
2018-01-26T14:46:31.641Z,102116.45
2018-01-26T14:49:00.023Z,102121.48
2018-01-26T14:51:29.122Z,102123.28
2018-01-26T14:53:57.437Z,102128.13
2018-01-26T14:56:25.775Z,102128.80
2018-01-26T14:58:54.078Z,102137.89
2018-01-26T15:01:23.227Z,102133.84
2018-01-26T15:03:51.548Z,102145.53
2018-01-26T15:06:19.873Z,102147.48
2018-01-26T15:08:48.170Z,102148.27
2018-01-26T15:11:16.500Z,102160.05
2018-01-26T15:13:45.571Z,102175.82
2018-01-26T15:16:13.875Z,102174.88
2018-01-26T15:18:42.184Z,102182.05
2018-01-26T15:21:11.283Z,102181.05
2018-01-26T15:23:39.580Z,102187.36
2018-01-26T15:26:08.049Z,102184.28
2018-01-26T15:28:36.346Z,102190.13
2018-01-26T15:31:04.674Z,102194.12
2018-01-26T15:33:33.018Z,102195.22
2018-01-26T15:36:01.343Z,102198.05
2018-01-26T15:38:29.789Z,102199.89
2018-01-26T15:40:58.258Z,102200.84
2018-01-26T15:43:26.588Z,102214.95
2018-01-26T15:45:54.905Z,102219.78
2018-01-26T15:48:23.217Z,102220.45
2018-01-26T15:50:51.530Z,102225.16
2018-01-26T15:53:19.844Z,102226.55
2018-01-26T15:55:48.928Z,102233.90
2018-01-26T15:58:18.035Z,102239.07
2018-01-26T16:00:47.114Z,102242.24
2018-01-26T16:03:15.424Z,102245.52
2018-01-26T16:05:44.528Z,102248.60
2018-01-26T16:08:13.624Z,102252.60
2018-01-26T16:10:42.704Z,102261.46
2018-01-26T16:13:11.024Z,102259.72
2018-01-26T16:15:39.322Z,102269.05
2018-01-26T16:18:07.634Z,102272.47
2018-01-26T16:20:35.948Z,102275.14
2018-01-26T16:23:05.165Z,102275.38
2018-01-26T16:25:34.224Z,102283.06
2018-01-26T16:28:02.527Z,102278.03
2018-01-26T16:30:31.691Z,102291.55
2018-01-26T16:33:00.049Z,102290.82
2018-01-26T16:35:28.443Z,102297.97
2018-01-26T16:37:56.740Z,102301.95
2018-01-26T16:40:25.968Z,102309.03
2018-01-26T16:42:54.300Z,102310.79
2018-01-26T16:45:22.604Z,102317.52
2018-01-26T16:47:50.920Z,102321.00
2018-01-26T16:50:21.058Z,102327.76
2018-01-26T16:52:49.384Z,102329.06
2018-01-26T16:55:17.688Z,102335.39
2018-01-26T16:57:46.004Z,102340.73
2018-01-26T17:00:14.332Z,102332.73
2018-01-26T17:02:42.668Z,102334.89
2018-01-26T17:05:10.988Z,102341.15
2018-01-26T17:07:39.296Z,102341.98
2018-01-26T17:10:07.612Z,102343.13
2018-01-26T17:12:35.927Z,102342.22
2018-01-26T17:15:04.379Z,102346.64
2018-01-26T17:17:32.688Z,102351.91
2018-01-26T17:20:00.978Z,102360.98
2018-01-26T17:22:29.305Z,102366.23
2018-01-26T17:24:58.416Z,102369.73
2018-01-26T17:27:26.700Z,102377.21
2018-01-26T17:29:55.926Z,102378.83
2018-01-26T17:32:24.245Z,102385.07
2018-01-26T17:34:52.562Z,102385.66
2018-01-26T17:37:21.650Z,102393.34
2018-01-26T17:39:50.733Z,102397.91
2018-01-26T17:42:19.053Z,102397.73
2018-01-26T17:44:47.355Z,102399.06
2018-01-26T17:47:15.668Z,102406.08
2018-01-26T17:49:44.064Z,102406.30
2018-01-26T17:52:13.104Z,102409.23
2018-01-26T17:54:41.404Z,102411.48
2018-01-26T17:57:09.766Z,102415.06
2018-01-26T17:59:38.066Z,102419.14
2018-01-26T18:02:06.402Z,102421.31
2018-01-26T18:04:35.465Z,102426.49
2018-01-26T18:07:03.804Z,102420.24
2018-01-26T18:09:32.131Z,102419.75
2018-01-26T18:12:00.443Z,102414.98
2018-01-26T18:14:28.734Z,102430.41
2018-01-26T18:16:57.820Z,102430.64
2018-01-26T18:19:26.898Z,102445.03
2018-01-26T18:21:55.224Z,102448.16
2018-01-26T18:24:24.294Z,102448.73
2018-01-26T18:26:52.614Z,102460.31
2018-01-26T18:29:20.933Z,102467.17
2018-01-26T18:31:49.238Z,102470.41
2018-01-26T18:34:17.561Z,102488.08
2018-01-26T18:36:45.877Z,102486.05
2018-01-26T18:39:14.201Z,102489.98
2018-01-26T18:41:43.308Z,102503.58
2018-01-26T18:44:12.467Z,102502.33
2018-01-26T18:46:40.772Z,102510.67
2018-01-26T18:49:09.082Z,102509.30
2018-01-26T18:51:37.429Z,102514.20
2018-01-26T18:54:05.732Z,102517.14
2018-01-26T18:56:34.815Z,102521.75
2018-01-26T18:59:03.900Z,102529.50
2018-01-26T19:01:32.230Z,102538.33
2018-01-26T19:04:00.564Z,102546.83
2018-01-26T19:06:28.902Z,102541.34
2018-01-26T19:08:57.234Z,102544.85
2018-01-26T19:11:25.547Z,102539.25
2018-01-26T19:13:54.856Z,102546.59
2018-01-26T19:16:23.271Z,102553.91
2018-01-26T19:18:51.592Z,102560.14
2018-01-26T19:21:20.622Z,102565.08
2018-01-26T19:23:48.932Z,102566.72
2018-01-26T19:26:17.244Z,102574.80
2018-01-26T19:28:45.538Z,102575.44
2018-01-26T19:31:13.899Z,102579.59
2018-01-26T19:33:42.217Z,102576.97
2018-01-26T19:36:11.270Z,102583.84
2018-01-26T19:38:39.766Z,102575.34
2018-01-26T19:41:08.921Z,102577.94
2018-01-26T19:43:37.232Z,102571.11
2018-01-26T19:46:05.556Z,102575.84
2018-01-26T19:48:34.896Z,102576.38
2018-01-26T19:51:04.864Z,102585.38
2018-01-26T19:53:33.170Z,102589.37
2018-01-26T19:56:01.517Z,102588.69
2018-01-26T19:58:29.816Z,102588.25
2018-01-26T20:00:58.130Z,102599.59
2018-01-26T20:03:32.071Z,102606.88
2018-01-26T20:06:06.204Z,102609.49
2018-01-26T20:08:40.962Z,102615.59
2018-01-26T20:11:10.312Z,102617.13
2018-01-26T20:13:38.970Z,102622.39
2018-01-26T20:16:08.042Z,102622.56
2018-01-26T20:18:36.345Z,102621.22
2018-01-26T20:21:05.446Z,102631.59
2018-01-26T20:23:34.502Z,102628.31
2018-01-26T20:26:02.797Z,102639.53
2018-01-26T20:28:31.105Z,102643.73
2018-01-26T20:31:00.821Z,102648.84
2018-01-26T20:33:29.934Z,102655.64
2018-01-26T20:35:58.689Z,102654.70
2018-01-26T20:38:27.776Z,102659.97
2018-01-26T20:40:56.204Z,102666.53
2018-01-26T20:43:24.559Z,102677.75
2018-01-26T20:45:53.727Z,102688.36
2018-01-26T20:48:22.097Z,102689.41
2018-01-26T20:50:50.481Z,102690.95
2018-01-26T20:53:18.819Z,102690.60
2018-01-26T20:55:47.360Z,102688.57
2018-01-26T20:58:16.733Z,102690.88
2018-01-26T21:00:45.127Z,102691.45
2018-01-26T21:03:13.509Z,102699.89
2018-01-26T21:05:42.067Z,102699.33
2018-01-26T21:08:10.421Z,102695.48
2018-01-26T21:10:39.005Z,102706.27
2018-01-26T21:13:07.335Z,102702.38
2018-01-26T21:15:35.648Z,102701.22
2018-01-26T21:18:03.953Z,102702.80
2018-01-26T21:20:32.256Z,102701.95
2018-01-26T21:23:01.489Z,102707.28
2018-01-26T21:25:29.926Z,102710.26
2018-01-26T21:27:58.243Z,102703.17
2018-01-26T21:30:27.328Z,102708.28
2018-01-26T21:32:57.466Z,102708.14
2018-01-26T21:35:25.792Z,102712.31
2018-01-26T21:37:54.117Z,102709.72
2018-01-26T21:40:22.426Z,102705.16
2018-01-26T21:42:51.566Z,102711.75
2018-01-26T21:45:20.645Z,102712.31
2018-01-26T21:47:48.950Z,102719.57
2018-01-26T21:50:17.419Z,102721.81
2018-01-26T21:52:45.726Z,102725.56
2018-01-26T21:55:14.054Z,102739.80
2018-01-26T21:57:42.376Z,102745.87
2018-01-26T22:00:11.457Z,102747.27
2018-01-26T22:02:39.881Z,102749.59
2018-01-26T22:05:16.682Z,102750.91
2018-01-26T22:07:45.774Z,102753.02
2018-01-26T22:10:14.850Z,102749.62
2018-01-26T22:12:43.257Z,102750.32
2018-01-26T22:15:12.317Z,102750.24
2018-01-26T22:17:40.599Z,102758.23
2018-01-26T22:20:08.909Z,102763.15
2018-01-26T22:22:37.995Z,102761.95
2018-01-26T22:25:06.297Z,102768.06
2018-01-26T22:27:35.352Z,102770.72
2018-01-26T22:30:03.666Z,102773.31
2018-01-26T22:32:31.995Z,102780.05
2018-01-26T22:35:00.445Z,102785.03
2018-01-26T22:37:29.575Z,102786.22
2018-01-26T22:39:57.885Z,102786.78
2018-01-26T22:42:26.221Z,102791.41
2018-01-26T22:44:54.529Z,102795.30
2018-01-26T22:47:22.882Z,102799.92
2018-01-26T22:49:51.195Z,102803.22
2018-01-26T22:52:19.582Z,102807.21
2018-01-26T22:54:47.876Z,102816.89
2018-01-26T22:57:16.207Z,102819.34
2018-01-26T22:59:44.555Z,102823.44
2018-01-26T23:02:13.090Z,102816.84
2018-01-26T23:04:41.474Z,102815.45
2018-01-26T23:07:10.351Z,102813.55
2018-01-26T23:09:39.467Z,102826.84
2018-01-26T23:12:07.783Z,102823.55
2018-01-26T23:14:36.170Z,102824.45
2018-01-26T23:17:04.473Z,102831.05
2018-01-26T23:19:32.789Z,102833.60
2018-01-26T23:22:01.090Z,102833.60
2018-01-26T23:24:29.421Z,102832.90
2018-01-26T23:26:57.732Z,102831.22
2018-01-26T23:29:26.033Z,102829.81
2018-01-26T23:31:54.339Z,102826.58
2018-01-26T23:34:22.785Z,102830.22
2018-01-26T23:36:51.091Z,102830.50
2018-01-26T23:39:19.403Z,102830.37
2018-01-26T23:41:47.799Z,102829.32
2018-01-26T23:44:16.969Z,102830.37
2018-01-26T23:46:45.303Z,102830.73
2018-01-26T23:49:13.750Z,102832.06
2018-01-26T23:51:42.102Z,102822.52
2018-01-26T23:54:10.409Z,102823.98
2018-01-26T23:56:39.199Z,102833.31
2018-01-26T23:59:07.525Z,102828.55
